sensor_id;sensor_type;location;lat;lon;timestamp;P1;durP1;ratioP1;P2;durP2;ratioP2
24751;SDS011;27246;52.376;4.628;2022-09-01T00:01:14;2.67;;;1.70;;
24751;SDS011;27246;52.376;4.628;2022-09-01T00:06:21;3.78;;;1.65;;
24751;SDS011;27246;52.376;4.628;2022-09-01T00:11:24;3.58;;;1.48;;
24751;SDS011;27246;52.376;4.628;2022-09-01T00:16:28;3.33;;;1.92;;
24751;SDS011;27246;52.376;4.628;2022-09-01T00:21:32;4.13;;;1.83;;
24751;SDS011;27246;52.376;4.628;2022-09-01T00:26:37;4.30;;;2.38;;
24751;SDS011;27246;52.376;4.628;2022-09-01T00:31:39;3.63;;;2.30;;
24751;SDS011;27246;52.376;4.628;2022-09-01T00:36:42;2.15;;;1.27;;
24751;SDS011;27246;52.376;4.628;2022-09-01T00:41:44;3.25;;;2.15;;
24751;SDS011;27246;52.376;4.628;2022-09-01T00:46:47;1.73;;;1.58;;
24751;SDS011;27246;52.376;4.628;2022-09-01T00:51:58;4.30;;;1.50;;
24751;SDS011;27246;52.376;4.628;2022-09-01T00:57:04;2.33;;;1.60;;
24751;SDS011;27246;52.376;4.628;2022-09-01T01:02:06;3.50;;;1.75;;
24751;SDS011;27246;52.376;4.628;2022-09-01T01:07:08;4.43;;;2.13;;
24751;SDS011;27246;52.376;4.628;2022-09-01T01:12:11;4.25;;;2.25;;
24751;SDS011;27246;52.376;4.628;2022-09-01T01:17:18;3.47;;;1.73;;
24751;SDS011;27246;52.376;4.628;2022-09-01T01:22:26;3.67;;;2.22;;
24751;SDS011;27246;52.376;4.628;2022-09-01T01:33:25;3.73;;;1.83;;
24751;SDS011;27246;52.376;4.628;2022-09-01T01:38:32;3.15;;;1.67;;
24751;SDS011;27246;52.376;4.628;2022-09-01T01:43:36;4.68;;;1.92;;
24751;SDS011;27246;52.376;4.628;2022-09-01T01:48:39;3.60;;;1.60;;
24751;SDS011;27246;52.376;4.628;2022-09-01T01:53:42;5.00;;;2.10;;
24751;SDS011;27246;52.376;4.628;2022-09-01T01:58:45;2.78;;;1.70;;
24751;SDS011;27246;52.376;4.628;2022-09-01T02:03:50;4.57;;;2.10;;
24751;SDS011;27246;52.376;4.628;2022-09-01T02:08:55;4.28;;;2.10;;
24751;SDS011;27246;52.376;4.628;2022-09-01T02:13:58;3.00;;;1.70;;
24751;SDS011;27246;52.376;4.628;2022-09-01T02:19:02;2.30;;;2.10;;
24751;SDS011;27246;52.376;4.628;2022-09-01T02:24:07;2.72;;;1.80;;
24751;SDS011;27246;52.376;4.628;2022-09-01T02:29:10;4.38;;;2.05;;
24751;SDS011;27246;52.376;4.628;2022-09-01T02:34:19;4.10;;;2.03;;
24751;SDS011;27246;52.376;4.628;2022-09-01T02:39:27;3.00;;;2.10;;
24751;SDS011;27246;52.376;4.628;2022-09-01T02:44:33;2.85;;;2.05;;
24751;SDS011;27246;52.376;4.628;2022-09-01T02:49:39;3.42;;;1.88;;
24751;SDS011;27246;52.376;4.628;2022-09-01T02:54:43;2.28;;;1.80;;
24751;SDS011;27246;52.376;4.628;2022-09-01T02:59:46;3.63;;;2.10;;
24751;SDS011;27246;52.376;4.628;2022-09-01T03:04:48;2.85;;;2.17;;
24751;SDS011;27246;52.376;4.628;2022-09-01T03:09:54;3.58;;;2.00;;
24751;SDS011;27246;52.376;4.628;2022-09-01T03:14:56;5.32;;;2.60;;
24751;SDS011;27246;52.376;4.628;2022-09-01T03:19:57;3.88;;;1.90;;
24751;SDS011;27246;52.376;4.628;2022-09-01T03:24:59;3.80;;;1.90;;
24751;SDS011;27246;52.376;4.628;2022-09-01T03:30:02;2.28;;;1.70;;
24751;SDS011;27246;52.376;4.628;2022-09-01T03:35:04;3.42;;;2.35;;
24751;SDS011;27246;52.376;4.628;2022-09-01T03:40:07;3.13;;;2.00;;
24751;SDS011;27246;52.376;4.628;2022-09-01T03:45:10;4.03;;;1.83;;
24751;SDS011;27246;52.376;4.628;2022-09-01T03:50:16;2.15;;;1.70;;
24751;SDS011;27246;52.376;4.628;2022-09-01T03:55:24;2.80;;;2.17;;
24751;SDS011;27246;52.376;4.628;2022-09-01T04:00:28;3.03;;;1.75;;
24751;SDS011;27246;52.376;4.628;2022-09-01T04:05:31;3.55;;;1.80;;
24751;SDS011;27246;52.376;4.628;2022-09-01T04:10:35;3.20;;;1.85;;
24751;SDS011;27246;52.376;4.628;2022-09-01T04:15:42;3.50;;;2.10;;
24751;SDS011;27246;52.376;4.628;2022-09-01T04:20:52;3.78;;;2.25;;
24751;SDS011;27246;52.376;4.628;2022-09-01T04:31:01;2.40;;;1.98;;
24751;SDS011;27246;52.376;4.628;2022-09-01T04:41:21;3.75;;;2.22;;
24751;SDS011;27246;52.376;4.628;2022-09-01T04:46:26;3.25;;;1.92;;
24751;SDS011;27246;52.376;4.628;2022-09-01T04:51:29;4.80;;;2.22;;
24751;SDS011;27246;52.376;4.628;2022-09-01T04:56:31;4.03;;;1.90;;
24751;SDS011;27246;52.376;4.628;2022-09-01T05:01:42;8.13;;;2.00;;
24751;SDS011;27246;52.376;4.628;2022-09-01T05:06:56;5.10;;;1.80;;
24751;SDS011;27246;52.376;4.628;2022-09-01T05:12:06;4.90;;;1.83;;
24751;SDS011;27246;52.376;4.628;2022-09-01T05:17:18;4.95;;;2.40;;
24751;SDS011;27246;52.376;4.628;2022-09-01T05:22:23;3.65;;;2.08;;
24751;SDS011;27246;52.376;4.628;2022-09-01T05:27:31;2.30;;;1.73;;
24751;SDS011;27246;52.376;4.628;2022-09-01T05:32:34;2.85;;;2.10;;
24751;SDS011;27246;52.376;4.628;2022-09-01T05:37:37;3.65;;;2.05;;
24751;SDS011;27246;52.376;4.628;2022-09-01T05:42:41;2.88;;;2.20;;
24751;SDS011;27246;52.376;4.628;2022-09-01T05:47:44;4.32;;;2.30;;
24751;SDS011;27246;52.376;4.628;2022-09-01T05:52:47;4.65;;;2.50;;
24751;SDS011;27246;52.376;4.628;2022-09-01T05:57:51;4.40;;;2.40;;
24751;SDS011;27246;52.376;4.628;2022-09-01T06:02:54;3.15;;;2.60;;
24751;SDS011;27246;52.376;4.628;2022-09-01T06:07:59;4.75;;;2.50;;
24751;SDS011;27246;52.376;4.628;2022-09-01T06:13:01;14.43;;;3.45;;
24751;SDS011;27246;52.376;4.628;2022-09-01T06:18:04;3.10;;;2.78;;
24751;SDS011;27246;52.376;4.628;2022-09-01T06:23:11;5.00;;;2.28;;
24751;SDS011;27246;52.376;4.628;2022-09-01T06:28:16;4.88;;;2.25;;
24751;SDS011;27246;52.376;4.628;2022-09-01T06:33:21;6.72;;;2.88;;
24751;SDS011;27246;52.376;4.628;2022-09-01T06:38:25;5.05;;;2.80;;
24751;SDS011;27246;52.376;4.628;2022-09-01T06:43:27;6.60;;;2.80;;
24751;SDS011;27246;52.376;4.628;2022-09-01T06:48:31;4.47;;;3.22;;
24751;SDS011;27246;52.376;4.628;2022-09-01T06:53:37;5.70;;;2.95;;
24751;SDS011;27246;52.376;4.628;2022-09-01T06:58:42;14.82;;;7.25;;
24751;SDS011;27246;52.376;4.628;2022-09-01T07:03:49;8.15;;;2.75;;
24751;SDS011;27246;52.376;4.628;2022-09-01T07:09:06;8.68;;;3.03;;
24751;SDS011;27246;52.376;4.628;2022-09-01T07:14:48;3.70;;;2.92;;
24751;SDS011;27246;52.376;4.628;2022-09-01T07:20:10;5.40;;;2.75;;
24751;SDS011;27246;52.376;4.628;2022-09-01T07:25:30;4.90;;;2.83;;
24751;SDS011;27246;52.376;4.628;2022-09-01T07:31:05;3.83;;;2.42;;
24751;SDS011;27246;52.376;4.628;2022-09-01T07:36:30;4.45;;;2.38;;
24751;SDS011;27246;52.376;4.628;2022-09-01T07:41:33;4.38;;;2.25;;
24751;SDS011;27246;52.376;4.628;2022-09-01T07:47:15;5.90;;;2.22;;
24751;SDS011;27246;52.376;4.628;2022-09-01T07:52:21;3.25;;;1.80;;
24751;SDS011;27246;52.376;4.628;2022-09-01T07:57:28;3.20;;;2.30;;
24751;SDS011;27246;52.376;4.628;2022-09-01T08:02:30;4.57;;;2.50;;
24751;SDS011;27246;52.376;4.628;2022-09-01T08:07:33;5.72;;;2.17;;
24751;SDS011;27246;52.376;4.628;2022-09-01T08:12:53;2.85;;;1.50;;
24751;SDS011;27246;52.376;4.628;2022-09-01T08:17:59;2.15;;;1.35;;
24751;SDS011;27246;52.376;4.628;2022-09-01T08:23:04;2.00;;;1.45;;
24751;SDS011;27246;52.376;4.628;2022-09-01T08:28:09;3.58;;;1.60;;
24751;SDS011;27246;52.376;4.628;2022-09-01T08:33:13;2.00;;;1.27;;
24751;SDS011;27246;52.376;4.628;2022-09-01T08:38:18;1.98;;;1.42;;
24751;SDS011;27246;52.376;4.628;2022-09-01T08:48:42;4.82;;;1.70;;
24751;SDS011;27246;52.376;4.628;2022-09-01T08:54:34;4.03;;;1.63;;
24751;SDS011;27246;52.376;4.628;2022-09-01T08:59:38;3.10;;;1.23;;
24751;SDS011;27246;52.376;4.628;2022-09-01T09:05:03;1.20;;;1.00;;
24751;SDS011;27246;52.376;4.628;2022-09-01T09:10:31;2.35;;;0.95;;
24751;SDS011;27246;52.376;4.628;2022-09-01T09:16:24;2.97;;;0.95;;
24751;SDS011;27246;52.376;4.628;2022-09-01T09:21:20;4.00;;;1.10;;
24751;SDS011;27246;52.376;4.628;2022-09-01T09:26:30;1.10;;;1.00;;
24751;SDS011;27246;52.376;4.628;2022-09-01T09:31:48;3.67;;;1.70;;
24751;SDS011;27246;52.376;4.628;2022-09-01T09:37:16;2.53;;;1.38;;
24751;SDS011;27246;52.376;4.628;2022-09-01T09:42:21;4.80;;;1.05;;
24751;SDS011;27246;52.376;4.628;2022-09-01T09:47:32;4.43;;;2.08;;
24751;SDS011;27246;52.376;4.628;2022-09-01T09:52:47;3.10;;;1.10;;
24751;SDS011;27246;52.376;4.628;2022-09-01T09:57:52;2.90;;;1.10;;
24751;SDS011;27246;52.376;4.628;2022-09-01T10:02:59;4.30;;;0.70;;
24751;SDS011;27246;52.376;4.628;2022-09-01T10:08:12;1.60;;;1.08;;
24751;SDS011;27246;52.376;4.628;2022-09-01T10:13:37;2.42;;;1.13;;
24751;SDS011;27246;52.376;4.628;2022-09-01T10:18:40;1.95;;;1.23;;
24751;SDS011;27246;52.376;4.628;2022-09-01T10:23:45;2.92;;;1.08;;
24751;SDS011;27246;52.376;4.628;2022-09-01T10:34:20;2.17;;;1.00;;
24751;SDS011;27246;52.376;4.628;2022-09-01T10:39:26;2.90;;;1.00;;
24751;SDS011;27246;52.376;4.628;2022-09-01T10:44:35;2.05;;;1.05;;
24751;SDS011;27246;52.376;4.628;2022-09-01T10:50:01;4.95;;;1.35;;
24751;SDS011;27246;52.376;4.628;2022-09-01T10:55:17;2.72;;;0.80;;
24751;SDS011;27246;52.376;4.628;2022-09-01T11:05:57;5.25;;;1.15;;
24751;SDS011;27246;52.376;4.628;2022-09-01T11:11:16;7.32;;;1.38;;
24751;SDS011;27246;52.376;4.628;2022-09-01T11:16:37;1.37;;;0.90;;
24751;SDS011;27246;52.376;4.628;2022-09-01T11:22:01;0.98;;;0.70;;
24751;SDS011;27246;52.376;4.628;2022-09-01T11:27:12;1.58;;;0.90;;
24751;SDS011;27246;52.376;4.628;2022-09-01T11:32:51;5.10;;;1.05;;
24751;SDS011;27246;52.376;4.628;2022-09-01T11:43:10;3.90;;;0.75;;
24751;SDS011;27246;52.376;4.628;2022-09-01T11:48:17;9.40;;;1.73;;
24751;SDS011;27246;52.376;4.628;2022-09-01T11:53:20;2.00;;;0.73;;
24751;SDS011;27246;52.376;4.628;2022-09-01T12:03:29;3.70;;;1.33;;
24751;SDS011;27246;52.376;4.628;2022-09-01T12:08:35;2.63;;;0.90;;
24751;SDS011;27246;52.376;4.628;2022-09-01T12:13:39;3.80;;;0.80;;
24751;SDS011;27246;52.376;4.628;2022-09-01T12:18:54;2.10;;;0.95;;
24751;SDS011;27246;52.376;4.628;2022-09-01T12:24:09;3.13;;;0.90;;
24751;SDS011;27246;52.376;4.628;2022-09-01T12:29:17;1.55;;;0.57;;
24751;SDS011;27246;52.376;4.628;2022-09-01T12:39:59;3.85;;;1.25;;
24751;SDS011;27246;52.376;4.628;2022-09-01T12:50:51;1.58;;;0.90;;
24751;SDS011;27246;52.376;4.628;2022-09-01T12:55:28;2.88;;;1.00;;
24751;SDS011;27246;52.376;4.628;2022-09-01T13:05:59;2.00;;;0.95;;
24751;SDS011;27246;52.376;4.628;2022-09-01T13:11:07;1.65;;;0.80;;
24751;SDS011;27246;52.376;4.628;2022-09-01T13:16:12;2.58;;;1.10;;
24751;SDS011;27246;52.376;4.628;2022-09-01T13:21:14;1.17;;;0.85;;
24751;SDS011;27246;52.376;4.628;2022-09-01T13:26:16;0.35;;;0.30;;
24751;SDS011;27246;52.376;4.628;2022-09-01T13:31:19;2.60;;;0.90;;
24751;SDS011;27246;52.376;4.628;2022-09-01T13:36:29;2.38;;;1.25;;
24751;SDS011;27246;52.376;4.628;2022-09-01T13:41:51;3.25;;;1.23;;
24751;SDS011;27246;52.376;4.628;2022-09-01T13:46:53;1.25;;;0.80;;
24751;SDS011;27246;52.376;4.628;2022-09-01T13:52:15;1.33;;;0.85;;
24751;SDS011;27246;52.376;4.628;2022-09-01T13:57:17;2.40;;;1.00;;
24751;SDS011;27246;52.376;4.628;2022-09-01T14:02:19;0.50;;;0.50;;
24751;SDS011;27246;52.376;4.628;2022-09-01T14:07:21;2.33;;;0.60;;
24751;SDS011;27246;52.376;4.628;2022-09-01T14:12:23;1.90;;;1.00;;
24751;SDS011;27246;52.376;4.628;2022-09-01T14:17:24;1.40;;;0.70;;
24751;SDS011;27246;52.376;4.628;2022-09-01T14:22:26;3.58;;;0.80;;
24751;SDS011;27246;52.376;4.628;2022-09-01T14:27:28;2.55;;;0.80;;
24751;SDS011;27246;52.376;4.628;2022-09-01T14:32:30;3.22;;;1.08;;
24751;SDS011;27246;52.376;4.628;2022-09-01T14:37:32;1.08;;;0.82;;
24751;SDS011;27246;52.376;4.628;2022-09-01T14:42:34;1.52;;;1.00;;
24751;SDS011;27246;52.376;4.628;2022-09-01T14:47:37;3.45;;;0.82;;
24751;SDS011;27246;52.376;4.628;2022-09-01T14:52:39;3.50;;;1.00;;
24751;SDS011;27246;52.376;4.628;2022-09-01T14:57:41;1.00;;;0.50;;
24751;SDS011;27246;52.376;4.628;2022-09-01T15:02:43;1.70;;;0.80;;
24751;SDS011;27246;52.376;4.628;2022-09-01T15:07:45;1.55;;;0.52;;
24751;SDS011;27246;52.376;4.628;2022-09-01T15:12:48;2.08;;;0.73;;
24751;SDS011;27246;52.376;4.628;2022-09-01T15:17:50;2.25;;;1.20;;
24751;SDS011;27246;52.376;4.628;2022-09-01T15:22:52;0.93;;;0.65;;
24751;SDS011;27246;52.376;4.628;2022-09-01T15:27:54;0.93;;;0.85;;
24751;SDS011;27246;52.376;4.628;2022-09-01T15:32:55;1.70;;;0.90;;
24751;SDS011;27246;52.376;4.628;2022-09-01T15:37:58;2.05;;;0.93;;
24751;SDS011;27246;52.376;4.628;2022-09-01T15:43:00;1.23;;;1.00;;
24751;SDS011;27246;52.376;4.628;2022-09-01T15:48:02;1.05;;;0.70;;
24751;SDS011;27246;52.376;4.628;2022-09-01T15:53:04;0.57;;;0.45;;
24751;SDS011;27246;52.376;4.628;2022-09-01T15:58:09;1.63;;;0.90;;
24751;SDS011;27246;52.376;4.628;2022-09-01T16:03:12;1.58;;;0.90;;
24751;SDS011;27246;52.376;4.628;2022-09-01T16:08:14;3.60;;;0.90;;
24751;SDS011;27246;52.376;4.628;2022-09-01T16:13:15;1.10;;;1.00;;
24751;SDS011;27246;52.376;4.628;2022-09-01T16:18:22;1.48;;;0.90;;
24751;SDS011;27246;52.376;4.628;2022-09-01T16:23:38;3.90;;;1.10;;
24751;SDS011;27246;52.376;4.628;2022-09-01T16:28:44;1.48;;;0.75;;
24751;SDS011;27246;52.376;4.628;2022-09-01T16:33:50;3.90;;;1.20;;
24751;SDS011;27246;52.376;4.628;2022-09-01T16:38:59;0.98;;;0.77;;
24751;SDS011;27246;52.376;4.628;2022-09-01T16:49:34;2.10;;;0.90;;
24751;SDS011;27246;52.376;4.628;2022-09-01T16:55:14;2.45;;;0.93;;
24751;SDS011;27246;52.376;4.628;2022-09-01T17:05:36;1.58;;;0.95;;
24751;SDS011;27246;52.376;4.628;2022-09-01T17:21:44;1.42;;;1.00;;
24751;SDS011;27246;52.376;4.628;2022-09-01T17:26:57;1.83;;;1.45;;
24751;SDS011;27246;52.376;4.628;2022-09-01T17:43:23;2.22;;;1.50;;
24751;SDS011;27246;52.376;4.628;2022-09-01T17:59:52;2.90;;;1.30;;
24751;SDS011;27246;52.376;4.628;2022-09-01T18:04:46;1.27;;;1.00;;
24751;SDS011;27246;52.376;4.628;2022-09-01T18:10:04;1.95;;;0.77;;
24751;SDS011;27246;52.376;4.628;2022-09-01T18:15:12;2.72;;;1.70;;
24751;SDS011;27246;52.376;4.628;2022-09-01T18:21:00;2.17;;;1.10;;
24751;SDS011;27246;52.376;4.628;2022-09-01T18:36:08;2.63;;;1.52;;
24751;SDS011;27246;52.376;4.628;2022-09-01T18:47:16;2.22;;;1.83;;
24751;SDS011;27246;52.376;4.628;2022-09-01T18:57:34;2.15;;;1.50;;
24751;SDS011;27246;52.376;4.628;2022-09-01T19:07:55;1.85;;;1.30;;
24751;SDS011;27246;52.376;4.628;2022-09-01T19:18:44;2.63;;;2.13;;
24751;SDS011;27246;52.376;4.628;2022-09-01T19:23:54;2.85;;;1.95;;
24751;SDS011;27246;52.376;4.628;2022-09-01T19:29:14;3.65;;;2.03;;
24751;SDS011;27246;52.376;4.628;2022-09-01T19:34:35;4.13;;;1.75;;
24751;SDS011;27246;52.376;4.628;2022-09-01T19:39:43;1.95;;;1.83;;
24751;SDS011;27246;52.376;4.628;2022-09-01T19:55:38;3.58;;;1.83;;
24751;SDS011;27246;52.376;4.628;2022-09-01T20:00:47;2.22;;;1.23;;
24751;SDS011;27246;52.376;4.628;2022-09-01T20:05:56;3.35;;;2.08;;
24751;SDS011;27246;52.376;4.628;2022-09-01T20:16:54;3.95;;;1.90;;
24751;SDS011;27246;52.376;4.628;2022-09-01T20:22:11;3.85;;;2.13;;
24751;SDS011;27246;52.376;4.628;2022-09-01T20:27:28;2.80;;;1.30;;
24751;SDS011;27246;52.376;4.628;2022-09-01T20:32:43;2.55;;;1.48;;
24751;SDS011;27246;52.376;4.628;2022-09-01T20:43:15;3.05;;;1.75;;
24751;SDS011;27246;52.376;4.628;2022-09-01T20:48:24;3.05;;;1.50;;
24751;SDS011;27246;52.376;4.628;2022-09-01T20:53:32;1.90;;;1.65;;
24751;SDS011;27246;52.376;4.628;2022-09-01T20:58:59;4.72;;;1.80;;
24751;SDS011;27246;52.376;4.628;2022-09-01T21:25:41;2.00;;;1.80;;
24751;SDS011;27246;52.376;4.628;2022-09-01T21:30:45;7.63;;;4.45;;
24751;SDS011;27246;52.376;4.628;2022-09-01T21:35:52;4.65;;;2.20;;
24751;SDS011;27246;52.376;4.628;2022-09-01T21:40:54;3.50;;;2.60;;
24751;SDS011;27246;52.376;4.628;2022-09-01T21:45:59;4.38;;;1.95;;
24751;SDS011;27246;52.376;4.628;2022-09-01T21:51:01;2.35;;;1.75;;
24751;SDS011;27246;52.376;4.628;2022-09-01T21:56:07;5.60;;;3.83;;
24751;SDS011;27246;52.376;4.628;2022-09-01T22:01:08;3.63;;;2.20;;
24751;SDS011;27246;52.376;4.628;2022-09-01T22:06:14;3.50;;;1.85;;
24751;SDS011;27246;52.376;4.628;2022-09-01T22:11:16;1.63;;;1.52;;
24751;SDS011;27246;52.376;4.628;2022-09-01T22:16:19;3.00;;;1.50;;
24751;SDS011;27246;52.376;4.628;2022-09-01T22:21:22;5.00;;;1.50;;
24751;SDS011;27246;52.376;4.628;2022-09-01T22:26:27;1.77;;;1.35;;
24751;SDS011;27246;52.376;4.628;2022-09-01T22:31:31;5.90;;;1.80;;
24751;SDS011;27246;52.376;4.628;2022-09-01T22:36:36;2.30;;;1.58;;
24751;SDS011;27246;52.376;4.628;2022-09-01T22:41:43;2.85;;;1.33;;
24751;SDS011;27246;52.376;4.628;2022-09-01T22:46:45;1.88;;;1.42;;
24751;SDS011;27246;52.376;4.628;2022-09-01T22:51:48;1.45;;;1.30;;
24751;SDS011;27246;52.376;4.628;2022-09-01T22:56:50;2.35;;;1.23;;
24751;SDS011;27246;52.376;4.628;2022-09-01T23:01:56;2.78;;;1.40;;
24751;SDS011;27246;52.376;4.628;2022-09-01T23:06:58;2.22;;;1.02;;
24751;SDS011;27246;52.376;4.628;2022-09-01T23:12:00;1.50;;;1.10;;
24751;SDS011;27246;52.376;4.628;2022-09-01T23:17:02;1.75;;;1.05;;
24751;SDS011;27246;52.376;4.628;2022-09-01T23:22:03;2.08;;;1.58;;
24751;SDS011;27246;52.376;4.628;2022-09-01T23:27:05;3.10;;;1.50;;
24751;SDS011;27246;52.376;4.628;2022-09-01T23:32:07;2.97;;;1.20;;
24751;SDS011;27246;52.376;4.628;2022-09-01T23:37:08;2.72;;;1.67;;
24751;SDS011;27246;52.376;4.628;2022-09-01T23:42:10;2.33;;;1.40;;
24751;SDS011;27246;52.376;4.628;2022-09-01T23:47:12;3.38;;;1.20;;
24751;SDS011;27246;52.376;4.628;2022-09-01T23:52:14;2.80;;;1.42;;
24751;SDS011;27246;52.376;4.628;2022-09-01T23:57:16;3.03;;;1.30;;
